Fort Worth Nas Jrb,Carswell field Fort Worth US
ICAO: KNFW
IATA: NFW
Category: Medium
Scheduled Services: No

Elevation: 650 ft
TransAlt. 18000 ft.

Airport Communications:
RGNL APP/DEP:125.8
NAVY FORT WORTH ARR:128.775
ATIS:27.357
NAVY FORT WORTH GND:126.4
LOCKHEED:28.41
BASE OPS:29.177
PMSV METRO:34.255
NAVY FORT WORTH TWR:120.95

KNFW Zoom In..

Runways:

(A) RW 17 length 12000 ft width 200 ft
ILS 108.70 / hdg 174

(B) RW 35 length 12000 ft width 200 ft
ILS 109.30 / hdg 354

Location; KNFW
Day. 24 / Time. 12.52 Zulu
* Altimeter: 30.08
* Temperature: 23° c. 73.4°f.
* Wind from: 160° Speed 06 kn.
Dewpoint: 20° c.
Visibility: 10 Statute Miles.
Clouds: Few 25000 ft.

KNFW 241252Z 16006KT 10SM FEW250 23/20 A3008 RMK AO2 SLP167 T02330200 $


Wind From 160°
Speed 06 kn.

 
 
jpsmedia.com for Web Design SOUNDCLOUD worldairports.se 2018   terms of use